Pewsey, United Kingdom
Current Conditions -  °F | °C
As of 10:11 AM on Thursday 29 Jan 2015 (Local Time) from EGDM Reporting Station
Scattered Clouds Scattered Clouds  
Wind Chill: 29°   Ceiling: Unl
Heat Index: 37°   Visibility: 6mi
Dew Point: 34°   Wind: 15mph
Humidity: 87%   Direction: 240°WSW
Pressure: 29.15"   Gusts: NA
Location:  51.34°N, 1.77°W
Report Text: EGDM 291011Z 24013KT 9999 FEW010 SCT070 03/01 Q0987 BLU TEMPO 7000 -SHRA SCT018TCU WHT
Loading
Personal Weather Stations






























Interactive Weather Map New forecast layout! Learn more

10-Day Weather Forecast

Advertisements
Track Severe Weather on mobile